Tiempo atmosférico en la estación meteorológica de Renteria, Gipuzkoa (165 m.)



Fecha
DESCASC
Temp. máxima en grados centígrados (hora)
DESCASC
Temp. mínima en grados centígrados (hora)
DESCASC
Temp. media en grados centígrados
DESCASC
Racha de viento máxima en m/sg (hora)
DESCASC
Velocidad máxima media en intervalos de 10 minutos(hora)
DESCASC
Precipitaciones diarias en mm
DESCASC
Precipitaciones de 00:00 a 06:00 en mm
DESCASC
Precipitaciones de 06:00 a 12:00 en mm
DESCASC
Precipitaciones de 12:00 a 18:00 en mm
DESCASC
Precipitaciones de 18:00 a 24:00 en mm
DESCASC
14-12-2019 18.8 (14:00) 10.1 (02:50) 14.4 16.11 (23:40) 7.22 (23:10) 0.2 0 0 0.2 0
13-12-2019 15 (12:30) 12.8 (21:00) 13.9 15 (09:40) 4.72 (10:00) 53.2 21.4 18.6 5.8 7.4
12-12-2019 13 (23:20) 7.8 (01:00) 10.4 14.72 (16:50) 5.56 (16:30) 36.6 14 1 7.6 14
11-12-2019 10.5 (16:20) 7.4 (00:00) 9 10.28 (20:10) 3.06 (13:20) 32.4 0 12 0.4 20
10-12-2019 16.8 (15:10) 6.1 (00:00) 11.4 3.61 (23:59) 1.67 (23:59) 1.2 1.2 0 0 0
09-12-2019 12.4 (14:40) 8.7 (00:00) 10.5 11.94 (16:50) 3.89 (10:00) 8.6 0.2 4.6 2.4 1.4
08-12-2019 12.3 (17:40) 5.4 (00:00) 8.9 7.22 (18:50) 3.61 (18:50) 9.2 0 0 8.8 0.4
07-12-2019 16.5 (14:50) 4.1 (00:00) 10.3 3.89 (19:20) 1.94 (03:10) 0 0 0 0 0
06-12-2019 18.3 (15:10) 2.5 (00:00) 10.4 8.33 (13:50) 4.72 (13:50) 0 0 0 0 0
05-12-2019 13.9 (12:40) 5.9 (00:00) 9.9 4.17 (13:50) 2.22 (13:50) 0 0 0 0 0
04-12-2019 10.6 (13:40) 0.3 (00:00) 5.5 7.5 (18:50) 2.22 (14:00) 0.2 0 0 0 0.2
03-12-2019 7.2 (16:40) 1.1 (00:00) 4.1 2.78 (00:10) 1.39 (00:10) 0.4 0.4 0 0 0
02-12-2019 9.2 (11:50) 4.9 (00:00) 7 6.11 (13:30) 3.33 (13:20) 1.8 0.2 0 1.4 0.2
01-12-2019 14.2 (14:40) 5 (00:00) 9.6 4.17 (09:40) 2.5 (06:20) 0.2 0 0 0.2 0
30-11-2019 17.3 (11:30) 6.9 (00:00) 12.1 14.72 (11:00) 8.89 (11:00) 22.8 0 0 21.6 1.2
29-11-2019 17.2 (16:20) 7.6 (00:00) 12.4 3.06 (00:20) 1.67 (00:20) 2.6 2.6 0 0 0
28-11-2019 14.2 (04:30) 10.1 (00:00) 12.2 9.44 (04:30) 3.61 (03:40) 6.6 1 0.6 3.2 1.8
27-11-2019 17 (14:00) 10.3 (00:00) 13.7 12.5 (17:10) 5.83 (17:10) 0.8 0 0 0 0.8
26-11-2019 20 (11:30) 8.6 (00:00) 14.3 21.11 (12:30) 12.22 (12:30) 0 0 0 0 0
25-11-2019 17.7 (13:20) 9.4 (00:00) 13.6 6.39 (13:30) 2.5 (00:20) 0.6 0.6 0 0 0
24-11-2019 13.2 (14:30) 8.2 (00:00) 10.7 7.22 (05:50) 2.78 (00:10) 23.6 11.8 10.2 0 1.6
23-11-2019 14.5 (00:00) 9.2 (00:00) 11.8 15.56 (00:30) 7.5 (00:30) 38.6 3.4 22 8.4 4.8
22-11-2019 14.7 (12:30) 7.9 (00:00) 11.3 23.06 (19:20) 11.11 (22:40) 4 0 0 0.2 3.8
21-11-2019 16 (13:00) 6.9 (00:00) 11.5 12.22 (11:10) 6.67 (00:30) 0 0 0 0 0
20-11-2019 12.9 (14:30) 2.3 (00:00) 7.6 12.78 (22:00) 6.11 (12:00) 0 0 0 0 0
19-11-2019 13.1 (14:40) 2.7 (00:00) 7.9 3.61 (03:30) 1.94 (03:20) 0.4 0.4 0 0 0
18-11-2019 10.2 (14:40) 4.6 (00:00) 7.4 7.5 (07:20) 4.17 (07:20) 5.6 4.6 1 0 0
17-11-2019 9.8 (15:00) 6.7 (00:00) 8.3 4.72 (11:10) 2.22 (11:10) 22.4 1.4 1.4 10 9.6
16-11-2019 8 (18:40) 2.1 (00:00) 5 11.11 (17:30) 4.72 (16:50) 21.6 1.4 4.6 10.2 5.4
15-11-2019 9.3 (14:40) 3.7 (00:00) 6.5 10.28 (12:10) 4.72 (10:00) 30.6 0 3.8 17 9.8

Gráficas

Temp. máximas Temp. mínimas Temp. medias Precipitaciones Rachas de viento máximas Velocidades máximas media en intervalos de 10 minutos

Datos horarios

Fecha y hora oficial Temperatura (ºC) Velocidad del viento (km/h) Dirección del viento Racha (km/h) Dirección de racha Precipitación (mm) Presión (hPa) Tendencia (hPa) Humedad (%)
2019-12-14 23:00:00 14.8 23 Sur 47 Sur 0 -- -- 58
2019-12-14 22:00:00 14.8 12 Sudeste 43 Sur 0 -- -- 59
2019-12-14 21:00:00 14.9 24 Sur 44 Sur 0 -- -- 59
2019-12-14 20:00:00 14.7 13 Sur 28 Sur 0 -- -- 61
2019-12-14 19:00:00 14.3 7 Sur 30 Sudeste 0 -- -- 63
2019-12-14 18:00:00 14.9 12 Sur 33 Sur 0 -- -- 59
2019-12-14 17:00:00 15.6 13 Sur 28 Sudeste 0 -- -- 61
2019-12-14 16:00:00 17.1 17 Sur 32 Sur 0 -- -- 55
2019-12-14 15:00:00 18.3 15 Sur 33 Sur 0 -- -- 57
2019-12-14 14:00:00 18.8 17 Sur 29 Sur 0 -- -- 56
2019-12-14 13:00:00 17.3 3 Nordeste 23 Sudoeste 0.2 -- -- 62
2019-12-14 12:00:00 15.1 8 Sur 27 Sur 0 -- -- 66
2019-12-14 11:00:00 13.4 8 Sudeste 22 Este 0 -- -- 71
2019-12-14 10:00:00 11.4 5 Norte 9 Norte 0 -- -- 96
2019-12-14 09:00:00 10.7 7 Norte 13 Norte 0 -- -- 98
2019-12-14 08:00:00 10.6 5 Noroeste 9 Norte 0 -- -- 98
2019-12-14 07:00:00 10.5 5 Norte 9 Norte 0 -- -- 99
2019-12-14 06:00:00 10.5 7 Norte 10 Norte 0 -- -- 99
2019-12-14 05:00:00 10.2 4 Norte 10 Norte 0 -- -- 100
2019-12-14 04:00:00 10.2 2 Norte 10 Norte 0 -- -- 100
2019-12-14 03:00:00 10.1 0 Calma 6 Norte 0 -- -- 99
2019-12-14 02:00:00 10.9 0 Calma 8 Norte 0 -- -- 96
2019-12-14 01:00:00 11.9 0 Calma 11 Noroeste 0 -- -- 91
2019-12-14 00:00:00 13.5 4 Norte 19 Sudoeste 0 -- -- 80
2019-12-13 23:00:00 13.5 5 Sudoeste 20 Sudoeste 0.8 -- -- 81
2019-12-13 22:00:00 13.2 6 Norte 30 Norte 1.4 -- -- 85
2019-12-13 21:00:00 12.8 6 Norte 24 Norte 1.8 -- -- 93
2019-12-13 20:00:00 13.5 4 Norte 27 Oeste 1.6 -- -- 91
2019-12-13 19:00:00 13.3 11 Norte 24 Nordeste 1.8 -- -- 95
2019-12-13 18:00:00 13.2 10 Este 31 Nordeste 1.6 -- -- 97
2019-12-13 17:00:00 13.2 9 Norte 35 Nordeste 1.4 -- -- 98
2019-12-13 16:00:00 13.7 12 Nordeste 39 Norte 0.4 -- -- 94
2019-12-13 15:00:00 14.6 10 Nordeste 40 Nordeste 0 -- -- 86
2019-12-13 14:00:00 14.6 12 Nordeste 49 Norte 0.8 -- -- 85
2019-12-13 13:00:00 14.9 14 Este 54 Nordeste 1.6 -- -- 80
2019-12-13 12:00:00 14.8 17 Este 49 Nordeste 2.2 -- -- 84
2019-12-13 11:00:00 14.7 13 Norte 51 Norte 2.6 -- -- 84
2019-12-13 10:00:00 14.7 17 Norte 54 Oeste 3 -- -- 84
2019-12-13 09:00:00 14.7 10 Sudeste 41 Noroeste 3.4 -- -- 82
2019-12-13 08:00:00 14.2 17 Este 48 Sudeste 3.6 -- -- 88
2019-12-13 07:00:00 13.8 13 Nordeste 53 Nordeste 3.8 -- -- 90
2019-12-13 06:00:00 13.6 13 Este 36 Nordeste 3.6 -- -- 93
2019-12-13 05:00:00 13.4 8 Nordeste 40 Nordeste 3.4 -- -- 96
2019-12-13 04:00:00 13.9 11 Este 54 Oeste 3.6 -- -- 93
2019-12-13 03:00:00 13.5 16 Sudoeste 37 Sudoeste 3.6 -- -- 94
2019-12-13 02:00:00 13.2 10 Este 31 Nordeste 3.6 -- -- 97
2019-12-13 01:00:00 13.3 11 Sur 31 Sudoeste 3.6 -- -- 97
2019-12-13 00:00:00 13 10 Sudeste 26 Sudoeste 3.4 -- -- 99
2019-12-12 23:00:00 12.9 7 Este 29 Nordeste 3.4 -- -- 99
2019-12-12 22:00:00 12.7 8 Sur 35 Sur 2.6 -- -- 99
2019-12-12 21:00:00 11.6 6 Sur 24 Sur 1.8 -- -- 100
2019-12-12 20:00:00 11.2 5 Este 20 Oeste 1.6 -- -- 97
2019-12-12 19:00:00 10.9 4 Oeste 21 Sudoeste 1.2 -- -- 94
2019-12-12 18:00:00 11.2 9 Norte 35 Sudoeste 1.2 -- -- 87
2019-12-12 17:00:00 11.1 17 Sudoeste 53 Sudoeste 1 -- -- 86
2019-12-12 16:00:00 10.5 14 Sur 42 Sudoeste 0.8 -- -- 85
2019-12-12 15:00:00 10 15 Sur 35 Sur 1.8 -- -- 84
2019-12-12 14:00:00 9.6 4 Oeste 26 Sur 2.2 -- -- 86
2019-12-12 13:00:00 10.2 6 Sur 36 Oeste 0.6 -- -- 81
2019-12-12 12:00:00 10.7 8 Sudeste 23 Sur 0 -- -- 78
2019-12-12 11:00:00 10.4 13 Sur 35 Sudoeste 0 -- -- 76
2019-12-12 10:00:00 10 9 Sur 29 Sur 0.2 -- -- 76
2019-12-12 09:00:00 8.7 8 Oeste 21 Sudoeste 0 -- -- 88
2019-12-12 08:00:00 8.5 10 Sudoeste 23 Sudoeste 0.2 -- -- 90
2019-12-12 07:00:00 7.8 3 Norte 7 Noroeste 0.6 -- -- 99
2019-12-12 06:00:00 8.1 0 Calma 13 Sudoeste 0.4 -- -- 96
2019-12-12 05:00:00 8.5 6 Sudoeste 23 Sudoeste 0.8 -- -- 89
2019-12-12 04:00:00 8.1 4 Nordeste 18 Sudoeste 1.2 -- -- 95
2019-12-12 03:00:00 8.3 6 Sur 31 Sudoeste 3 -- -- 92
2019-12-12 02:00:00 8.1 4 Nordeste 14 Sur 4.4 -- -- 98
2019-12-12 01:00:00 7.8 2 Sur 9 Sur 4.2 -- -- 98
2019-12-12 00:00:00 8.1 4 Sudoeste 14 Sudeste 5.2 -- -- 95
2019-12-11 23:00:00 7.8 4 Este 24 Sudoeste 3.6 -- -- 98
2019-12-11 22:00:00 8.1 6 Sudoeste 22 Norte 6 -- -- 94
2019-12-11 21:00:00 8 6 Sur 37 Sur 1.8 -- -- 93
2019-12-11 20:00:00 8 9 Norte 27 Norte 3.2 -- -- 94
2019-12-11 19:00:00 10.1 6 Norte 23 Sudoeste 0.2 -- -- 69
2019-12-11 18:00:00 10.2 8 Sudoeste 22 Sudoeste 0 -- -- 65
2019-12-11 17:00:00 10.1 4 Sudoeste 21 Sudoeste 0 -- -- 67
2019-12-11 16:00:00 10.3 6 Sudoeste 24 Sudoeste 0 -- -- 75
2019-12-11 15:00:00 9.9 5 Este 32 Noroeste 0 -- -- 82
2019-12-11 14:00:00 9.7 7 Sudoeste 27 Sur 0.4 -- -- 80
2019-12-11 13:00:00 9.5 4 Sur 19 Sur 0 -- -- 84
2019-12-11 12:00:00 8.9 5 Sur 21 Sudoeste 0.2 -- -- 92
2019-12-11 11:00:00 9 5 Este 25 Sur 3.6 -- -- 95
2019-12-11 10:00:00 9.8 9 Norte 29 Noroeste 5.6 -- -- 95
2019-12-11 09:00:00 9.9 7 Sudoeste 21 Sudoeste 2.6 -- -- 96
2019-12-11 08:00:00 9.4 4 Sur 12 Sudoeste 0 -- -- 80
2019-12-11 07:00:00 7.9 5 Noroeste 16 Norte 0 -- -- 89
2019-12-11 06:00:00 7.5 5 Norte 14 Norte 0 -- -- 93
2019-12-11 05:00:00 7.5 4 Norte 10 Norte 0 -- -- 95
2019-12-11 04:00:00 7.6 5 Norte 14 Norte 0 -- -- 93
2019-12-11 03:00:00 7.8 3 Noroeste 7 Noroeste 0 -- -- 94
2019-12-11 02:00:00 8 2 Norte 10 Norte 0 -- -- 90
2019-12-11 01:00:00 7.9 3 Noroeste 12 Norte 0 -- -- 94
2019-12-11 00:00:00 7.4 6 Nordeste 13 Norte 0 -- -- 94
2019-12-10 23:00:00 7.3 0 Calma 6 Sudeste 0 -- -- 89
2019-12-10 22:00:00 7.5 0 Calma 6 Noroeste 0 -- -- 89
2019-12-10 21:00:00 7.8 2 Noroeste 7 Noroeste 0 -- -- 89
2019-12-10 20:00:00 8.4 3 Sudeste 7 Sudeste 0 -- -- 86
2019-12-10 19:00:00 9.5 0 Calma 10 Noroeste 0 -- -- 90
2019-12-10 18:00:00 11.2 0 Calma 9 Norte 0 -- -- 86
2019-12-10 17:00:00 13.1 2 Sudeste 5 Norte 0 -- -- 75
2019-12-10 16:00:00 15.4 0 Calma 5 Sudoeste 0 -- -- 72
2019-12-10 15:00:00 16.5 3 Sur 7 Noroeste 0 -- -- 69
2019-12-10 14:00:00 14.7 0 Calma 6 Noroeste 0 -- -- 63
2019-12-10 13:00:00 12.4 4 Noroeste 7 Norte 0 -- -- 70
2019-12-10 12:00:00 11.2 0 Calma 7 Norte 0 -- -- 89
2019-12-10 11:00:00 9.5 0 Calma 12 Este 0 -- -- 97
2019-12-10 10:00:00 7.4 2 Nordeste 5 Nordeste 0 -- -- 100
2019-12-10 09:00:00 6.2 0 Calma 5 Noroeste 0 -- -- 100
2019-12-10 08:00:00 6.7 2 Sudoeste 9 Este 0 -- -- 100
2019-12-10 07:00:00 6.9 2 Sudoeste 7 Este 0 -- -- 100
2019-12-10 06:00:00 7.5 3 Sudeste 7 Noroeste 0 -- -- 100
2019-12-10 05:00:00 8.3 2 Norte 6 Noroeste 0 -- -- 100
2019-12-10 04:00:00 8.6 0 Calma 5 Este 0 -- -- 100
2019-12-10 03:00:00 8.9 0 Calma 8 Sudoeste 0.4 -- -- 100
2019-12-10 02:00:00 8.7 3 Sudoeste 6 Sur 0 -- -- 100
2019-12-10 01:00:00 8.7 4 Sur 8 Norte 0.8 -- -- 100
2019-12-10 00:00:00 8.8 3 Nordeste 8 Sudoeste 0.4 -- -- 99
2019-12-09 23:00:00 9 2 Sudoeste 6 Sudoeste 0 -- -- 96
2019-12-09 22:00:00 9.5 2 Este 18 Noroeste 0.2 -- -- 93
2019-12-09 21:00:00 9.5 3 Oeste 19 Noroeste 0.2 -- -- 92
2019-12-09 20:00:00 9.7 10 Norte 31 Norte 0.6 -- -- 93
2019-12-09 19:00:00 10.9 6 Noroeste 17 Nordeste 0 -- -- 84
2019-12-09 18:00:00 10 6 Noroeste 26 Norte 0.6 -- -- 92
2019-12-09 17:00:00 10.4 9 Noroeste 43 Noroeste 0.2 -- -- 87
2019-12-09 16:00:00 10.9 12 Norte 35 Norte 0.6 -- -- 88
2019-12-09 15:00:00 12.4 6 Sur 28 Noroeste 0 -- -- 74
2019-12-09 14:00:00 11.8 8 Nordeste 31 Sudoeste 0 -- -- 77
2019-12-09 13:00:00 11 7 Noroeste 40 Noroeste 1 -- -- 88
2019-12-09 12:00:00 11.2 7 Sur 27 Sudoeste 1.2 -- -- 87
2019-12-09 11:00:00 10.9 8 Este 29 Norte 1.2 -- -- 93
2019-12-09 10:00:00 11.1 14 Sudoeste 33 Sur 0 -- -- 82
2019-12-09 09:00:00 10.3 11 Sur 37 Sudoeste 1.2 -- -- 91
2019-12-09 08:00:00 10.9 6 Sudoeste 33 Sur 0.2 -- -- 85
2019-12-09 07:00:00 10.6 6 Sudoeste 30 Noroeste 0.8 -- -- 88
2019-12-09 06:00:00 11.4 9 Sudoeste 33 Sudoeste 0 -- -- 78
2019-12-09 05:00:00 10.7 9 Sudoeste 25 Sudoeste 0.2 -- -- 82
2019-12-09 04:00:00 11.3 8 Oeste 24 Sudoeste 0 -- -- 77
2019-12-09 03:00:00 11.1 3 Oeste 14 Sudoeste 0 -- -- 78
2019-12-09 02:00:00 11 3 Oeste 13 Este 0 -- -- 81
2019-12-09 01:00:00 10.7 2 Sudoeste 13 Sur 0 -- -- 85
2019-12-09 00:00:00 10.7 4 Noroeste 13 Sur 0 -- -- 88
2019-12-08 23:00:00 11 0 Calma 14 Sur 0 -- -- 83
2019-12-08 22:00:00 10.9 3 Norte 16 Sudoeste 0 -- -- 91
2019-12-08 21:00:00 11.4 4 Sur 17 Sudoeste 0 -- -- 84
2019-12-08 20:00:00 11.6 8 Sur 17 Oeste 0 -- -- 90
2019-12-08 19:00:00 11.7 12 Sudoeste 26 Sudoeste 0.4 -- -- 91
2019-12-08 18:00:00 11.9 5 Este 25 Norte 1.8 -- -- 100
2019-12-08 17:00:00 11.9 4 Nordeste 12 Nordeste 1.6 -- -- 100
2019-12-08 16:00:00 11.4 3 Norte 5 Noroeste 1.8 -- -- 100
2019-12-08 15:00:00 11.1 0 Calma 6 Norte 2 -- -- 100
2019-12-08 14:00:00 10.9 0 Calma 5 Noroeste 1.2 -- -- 100
2019-12-08 13:00:00 10.5 3 Norte 6 Norte 0.4 -- -- 100
2019-12-08 12:00:00 9.8 3 Norte 9 Norte 0 -- -- 100
2019-12-08 11:00:00 8.8 3 Nordeste 9 Noroeste 0 -- -- 100
2019-12-08 10:00:00 8 3 Norte 6 Noroeste 0 -- -- 100
2019-12-08 09:00:00 6.8 3 Noroeste 12 Noroeste 0 -- -- 100
2019-12-08 08:00:00 5.7 3 Norte 9 Noroeste 0 -- -- 100
2019-12-08 07:00:00 5.4 0 Calma 9 Noroeste 0 -- -- 100
2019-12-08 06:00:00 5.9 2 Norte 6 Norte 0 -- -- 100
2019-12-08 05:00:00 5.8 2 Sudoeste 8 Noroeste 0 -- -- 100
2019-12-08 04:00:00 6.4 2 Norte 8 Noroeste 0 -- -- 100
2019-12-08 03:00:00 6.7 0 Calma 6 Norte 0 -- -- 100
2019-12-08 02:00:00 6.9 2 Oeste 5 Oeste 0 -- -- 100
2019-12-08 01:00:00 7.5 2 Norte 7 Noroeste 0 -- -- 99
2019-12-08 00:00:00 7.9 3 Noroeste 8 Noroeste 0 -- -- 98
2019-12-07 23:00:00 8.4 6 Norte 11 Noroeste 0 -- -- 98
2019-12-07 22:00:00 9.6 3 Noroeste 9 Noroeste 0 -- -- 95
2019-12-07 21:00:00 10.9 0 Calma 9 Norte 0 -- -- 90
2019-12-07 20:00:00 11.4 5 Norte 14 Norte 0 -- -- 88
2019-12-07 19:00:00 12.6 0 Calma 6 Noroeste 0 -- -- 82
2019-12-07 18:00:00 13.7 2 Oeste 8 Noroeste 0 -- -- 74
2019-12-07 17:00:00 14.8 4 Noroeste 8 Noroeste 0 -- -- 67
2019-12-07 16:00:00 15.9 0 Calma 7 Norte 0 -- -- 65
2019-12-07 15:00:00 16.5 0 Calma 8 Sur 0 -- -- 65
2019-12-07 14:00:00 14.8 0 Calma 5 Sur 0 -- -- 64
2019-12-07 13:00:00 12 0 Calma 5 Sudeste 0 -- -- 84
2019-12-07 12:00:00 9.2 0 Calma 3 Norte 0 -- -- 99
2019-12-07 11:00:00 7 0 Calma 4 Norte 0 -- -- 100
2019-12-07 10:00:00 5.1 0 Calma 5 Sudeste 0 -- -- 100
2019-12-07 09:00:00 4.2 0 Calma 5 Noroeste 0 -- -- 100
2019-12-07 08:00:00 4.2 2 Sur 4 Sudeste 0 -- -- 100
2019-12-07 07:00:00 4.8 0 Calma 5 Norte 0 -- -- 100
2019-12-07 06:00:00 5.5 0 Calma 6 Norte 0 -- -- 100
2019-12-07 05:00:00 6 0 Calma 4 Sudoeste 0 -- -- 99
2019-12-07 04:00:00 6.7 0 Calma 13 Norte 0 -- -- 98
2019-12-07 03:00:00 6.9 6 Noroeste 11 Noroeste 0 -- -- 99
2019-12-07 02:00:00 6.8 0 Calma 5 Norte 0 -- -- 97
2019-12-07 01:00:00 7.2 2 Sur 11 Noroeste 0 -- -- 96
2019-12-07 00:00:00 7.3 4 Este 12 Sudeste 0 -- -- 96
2019-12-06 23:00:00 7.3 3 Noroeste 15 Norte 0 -- -- 97
2019-12-06 22:00:00 6.9 3 Sur 5 Sur 0 -- -- 97
2019-12-06 21:00:00 7.9 2 Noroeste 11 Noroeste 0 -- -- 95
2019-12-06 20:00:00 9.3 0 Calma 6 Noroeste 0 -- -- 91
2019-12-06 19:00:00 10.9 3 Oeste 11 Noroeste 0 -- -- 82
2019-12-06 18:00:00 12.5 5 Noroeste 12 Nordeste 0 -- -- 75
2019-12-06 17:00:00 15 7 Sur 25 Sur 0 -- -- 61
2019-12-06 16:00:00 16.4 14 Sur 26 Sur 0 -- -- 56
2019-12-06 15:00:00 18.1 12 Sur 24 Sudoeste 0 -- -- 54
2019-12-06 14:00:00 17.6 14 Sur 30 Sur 0 -- -- 55
2019-12-06 13:00:00 13.7 7 Sudeste 21 Este 0 -- -- 75
2019-12-06 12:00:00 8.7 0 Calma 4 Norte 0 -- -- 97
2019-12-06 11:00:00 6.9 2 Sur 5 Sur 0 -- -- 100
2019-12-06 10:00:00 4.7 0 Calma 5 Sudoeste 0 -- -- 100
2019-12-06 09:00:00 2.6 2 Norte 5 Norte 0 -- -- 100
2019-12-06 08:00:00 2.7 0 Calma 6 Sudeste 0 -- -- 100
2019-12-06 07:00:00 2.8 3 Sudoeste 5 Sudeste 0 -- -- 100
2019-12-06 06:00:00 3.2 2 Sudoeste 6 Oeste 0 -- -- 100
2019-12-06 05:00:00 3.5 2 Sudoeste 5 Sur 0 -- -- 100
2019-12-06 04:00:00 3.9 2 Sur 9 Sudeste 0 -- -- 100
2019-12-06 03:00:00 4.4 3 Sur 5 Sur 0 -- -- 100
2019-12-06 02:00:00 4.8 0 Calma 4 Norte 0 -- -- 100
2019-12-06 01:00:00 5.3 0 Calma 4 Oeste 0 -- -- 100
2019-12-06 00:00:00 5.9 3 Sur 7 Sudeste 0 -- -- 100
2019-12-05 23:00:00 6.8 0 Calma 6 Este 0 -- -- 99
2019-12-05 22:00:00 7.8 4 Norte 7 Norte 0 -- -- 99
2019-12-05 21:00:00 8.4 0 Calma 5 Sudoeste 0 -- -- 97
2019-12-05 20:00:00 8.7 3 Sur 5 Sudoeste 0 -- -- 96
2019-12-05 19:00:00 9.4 2 Oeste 6 Noroeste 0 -- -- 94
2019-12-05 18:00:00 10.8 0 Calma 5 Sudoeste 0 -- -- 88
2019-12-05 17:00:00 12.6 0 Calma 8 Sudoeste 0 -- -- 76
2019-12-05 16:00:00 13.4 2 Sur 13 Sudoeste 0 -- -- 73
2019-12-05 15:00:00 12.9 2 Noroeste 13 Noroeste 0 -- -- 75
2019-12-05 14:00:00 12.3 5 Noroeste 15 Noroeste 0 -- -- 78
2019-12-05 13:00:00 13.3 2 Noroeste 8 Noroeste 0 -- -- 74
2019-12-05 12:00:00 12.7 2 Sudeste 6 Sudeste 0 -- -- 79
2019-12-05 11:00:00 10.3 2 Sur 7 Nordeste 0 -- -- 93
2019-12-05 10:00:00 7.5 0 Calma 4 Sudeste 0 -- -- 100
2019-12-05 09:00:00 6.9 2 Sudeste 4 Sudeste 0 -- -- 100
2019-12-05 08:00:00 6.9 0 Calma 3 Sudoeste 0 -- -- 100
2019-12-05 07:00:00 6.8 2 Sur 4 Sudoeste 0 -- -- 100
2019-12-05 06:00:00 6.9 0 Calma 3 Sudoeste 0 -- -- 100
2019-12-05 05:00:00 6.8 0 Calma 3 Sudoeste 0 -- -- 100
2019-12-05 04:00:00 6.9 0 Calma 4 Nordeste 0 -- -- 100
2019-12-05 03:00:00 6.9 0 Calma 4 Este 0 -- -- 98
2019-12-05 02:00:00 7 3 Norte 5 Nordeste 0 -- -- 97
2019-12-05 01:00:00 7 0 Calma 7 Sudeste 0 -- -- 95
2019-12-05 00:00:00 7 0 Calma 4 Sudoeste 0 -- -- 97
2019-12-04 23:00:00 7.2 3 Oeste 7 Oeste 0 -- -- 95
2019-12-04 22:00:00 7.3 3 Noroeste 12 Oeste 0.2 -- -- 95
2019-12-04 21:00:00 7.7 2 Oeste 13 Norte 0 -- -- 96
2019-12-04 20:00:00 8.2 6 Sur 12 Sudoeste 0 -- -- 96
2019-12-04 19:00:00 8.7 3 Sur 27 Noroeste 0 -- -- 94
2019-12-04 18:00:00 9 3 Sudeste 12 Nordeste 0 -- -- 90
2019-12-04 17:00:00 8.9 0 Calma 24 Norte 0 -- -- 91
2019-12-04 16:00:00 9.5 6 Norte 17 Noroeste 0 -- -- 90
2019-12-04 15:00:00 10.3 2 Nordeste 10 Sudoeste 0 -- -- 84
2019-12-04 14:00:00 10.4 8 Sudoeste 13 Sudoeste 0 -- -- 83
2019-12-04 13:00:00 9.9 3 Sudoeste 5 Sur 0 -- -- 90
2019-12-04 12:00:00 7.7 3 Sur 5 Sur 0 -- -- 100
2019-12-04 11:00:00 4.6 0 Calma 4 Sur 0 -- -- 100
2019-12-04 10:00:00 1.8 0 Calma 4 Sudoeste 0 -- -- 100
2019-12-04 09:00:00 0.6 3 Sudoeste 4 Sudoeste 0 -- -- 100
2019-12-04 08:00:00 0.6 2 Sudoeste 5 Sudoeste 0 -- -- 100
2019-12-04 07:00:00 0.5 0 Calma 6 Noroeste 0 -- -- 100
2019-12-04 06:00:00 0.5 0 Calma 4 Sudoeste 0 -- -- 100
2019-12-04 05:00:00 0.4 0 Calma 5 Sudoeste 0 -- -- 100
2019-12-04 04:00:00 0.6 2 Sudoeste 4 Sudoeste 0 -- -- 100
2019-12-04 03:00:00 1 3 Sudoeste 6 Sur 0 -- -- 100
2019-12-04 02:00:00 1.1 2 Sur 5 Sudoeste 0 -- -- 100
2019-12-04 01:00:00 1 2 Sudoeste 4 Sudoeste 0 -- -- 100
2019-12-04 00:00:00 1.1 2 Sudoeste 4 Sur 0 -- -- 100
2019-12-03 23:00:00 1.7 2 Sudoeste 9 Sudeste 0 -- -- 99
2019-12-03 22:00:00 2 0 Calma 6 Nordeste 0 -- -- 99
2019-12-03 21:00:00 2.7 0 Calma 7 Sudeste 0 -- -- 98
2019-12-03 20:00:00 3.5 2 Sudoeste 6 Sudeste 0 -- -- 97
2019-12-03 19:00:00 4.6 3 Sudoeste 7 Sur 0 -- -- 96
2019-12-03 18:00:00 5.5 4 Sudoeste 5 Sudoeste 0 -- -- 93
2019-12-03 17:00:00 6.9 0 Calma 5 Nordeste 0 -- -- 87
2019-12-03 16:00:00 7.1 3 Norte 6 Nordeste 0 -- -- 83
2019-12-03 15:00:00 6.8 0 Calma 4 Nordeste 0 -- -- 89
2019-12-03 14:00:00 6.4 2 Nordeste 5 Nordeste 0 -- -- 93
2019-12-03 13:00:00 5.9 0 Calma 4 Sur 0 -- -- 91
2019-12-03 12:00:00 5.8 2 Sudoeste 4 Sur 0 -- -- 97
2019-12-03 11:00:00 5.1 0 Calma 8 Noroeste 0 -- -- 98
2019-12-03 10:00:00 4.5 0 Calma 9 Nordeste 0 -- -- 100
2019-12-03 09:00:00 4 3 Sudoeste -- -- 0 -- -- 100
2019-12-03 08:00:00 4.3 3 Sur 9 Norte 0 -- -- 98
2019-12-03 07:00:00 4.5 3 Noroeste 8 Noroeste 0 -- -- 98
2019-12-03 06:00:00 4.6 4 Oeste 6 Oeste 0 -- -- 100
2019-12-03 05:00:00 4.7 3 Sudoeste 6 Sudoeste 0 -- -- 100
2019-12-03 04:00:00 5 2 Sudoeste 3 Sudoeste 0 -- -- 100
2019-12-03 03:00:00 5 0 Calma 5 Oeste 0 -- -- 100
2019-12-03 02:00:00 5 2 Sudoeste 5 Sudoeste 0.2 -- -- 99
2019-12-03 01:00:00 5.1 3 Noroeste 10 Noroeste 0.2 -- -- 97
2019-12-03 00:00:00 5.2 6 Noroeste 15 Noroeste 0 -- -- 95
2019-12-02 23:00:00 5.4 7 Noroeste 15 Noroeste 0.2 -- -- 96
2019-12-02 22:00:00 5.8 2 Oeste 10 Noroeste 0 -- -- 96
2019-12-02 21:00:00 5.9 2 Noroeste 10 Noroeste 0 -- -- 96
2019-12-02 20:00:00 6 2 Oeste 6 Noroeste 0 -- -- 96
2019-12-02 19:00:00 6.1 0 Calma 9 Noroeste 0 -- -- 98
2019-12-02 18:00:00 6.2 4 Noroeste 12 Norte 0.2 -- -- 98
2019-12-02 17:00:00 6.3 5 Noroeste 13 Noroeste 0 -- -- 99
2019-12-02 16:00:00 6.8 5 Noroeste 20 Noroeste 0.2 -- -- 99
2019-12-02 15:00:00 7.3 9 Noroeste 22 Noroeste 0.2 -- -- 98
2019-12-02 14:00:00 8.3 8 Noroeste 22 Noroeste 0.4 -- -- 99
2019-12-02 13:00:00 9 6 Noroeste 16 Noroeste 0.4 -- -- 98
2019-12-02 12:00:00 9.2 3 Noroeste 8 Norte 0 -- -- 100
2019-12-02 11:00:00 8 4 Noroeste 11 Noroeste 0 -- -- 100
2019-12-02 10:00:00 7.3 2 Sudoeste 6 Sudoeste 0 -- -- 100
2019-12-02 09:00:00 6.8 3 Sur 6 Sur 0 -- -- 100
2019-12-02 08:00:00 6.1 4 Sudoeste 4 Sudoeste 0 -- -- 100
2019-12-02 07:00:00 6 2 Oeste 4 Noroeste 0 -- -- 100
2019-12-02 06:00:00 5.6 0 Calma 5 Sudoeste 0 -- -- 100
2019-12-02 05:00:00 5.1 0 Calma 4 Sudoeste 0.2 -- -- 100
2019-12-02 04:00:00 4.9 3 Sudoeste 5 Sudoeste 0 -- -- 100
2019-12-02 03:00:00 5.2 0 Calma 7 Noroeste 0 -- -- 100
2019-12-02 02:00:00 5.5 0 Calma 4 Norte 0 -- -- 100
2019-12-02 01:00:00 5.6 0 Calma 3 Sudoeste 0 -- -- 100
2019-12-02 00:00:00 5.8 0 Calma 8 Sudeste 0 -- -- 100
2019-12-01 23:00:00 6.3 3 Sudeste 6 Sudeste 0 -- -- 100
2019-12-01 22:00:00 6.8 2 Sudeste 4 Oeste 0 -- -- 99
2019-12-01 21:00:00 7.8 0 Calma 6 Norte 0 -- -- 97
2019-12-01 20:00:00 8.2 2 Noroeste 5 Noroeste 0 -- -- 96
2019-12-01 19:00:00 9 0 Calma 5 Noroeste 0 -- -- 94
2019-12-01 18:00:00 10.2 2 Sur 4 Sudoeste 0 -- -- 86
2019-12-01 17:00:00 12.3 0 Calma 11 Noroeste 0 -- -- 77
2019-12-01 16:00:00 13.5 4 Noroeste 14 Noroeste 0 -- -- 68
2019-12-01 15:00:00 14 4 Noroeste 9 Sudoeste 0 -- -- 66
2019-12-01 14:00:00 13 0 Calma 6 Sudoeste 0 -- -- 71
2019-12-01 13:00:00 11.8 4 Noroeste 7 Oeste 0.2 -- -- 76
2019-12-01 12:00:00 9.8 0 Calma 4 Oeste 0 -- -- 100
2019-12-01 11:00:00 8 0 Calma 10 Norte 0 -- -- 100
2019-12-01 10:00:00 6.5 4 Noroeste 15 Norte 0 -- -- 100
2019-12-01 09:00:00 6.2 7 Norte 13 Noroeste 0 -- -- 100
2019-12-01 08:00:00 5.8 6 Norte 11 Norte 0 -- -- 100
2019-12-01 07:00:00 5.5 5 Norte 14 Norte 0 -- -- 100
2019-12-01 06:00:00 5.4 7 Norte 12 Norte 0 -- -- 100
2019-12-01 05:00:00 5.4 5 Norte 9 Noroeste 0 -- -- 100
2019-12-01 04:00:00 5.5 2 Norte 10 Norte 0 -- -- 100
2019-12-01 03:00:00 5.6 3 Sudeste 12 Norte 0 -- -- 99
2019-12-01 02:00:00 6.2 3 Norte 13 Nordeste 0 -- -- 98
2019-12-01 01:00:00 6.4 0 Calma 6 Sudeste 0 -- -- 100
2019-12-01 00:00:00 7.1 3 Norte 11 Nordeste 0 -- -- 100
2019-11-30 23:00:00 7.3 2 Noroeste 6 Noroeste 0 -- -- 100
2019-11-30 22:00:00 8.3 0 Calma 6 Noroeste 0 -- -- 99
2019-11-30 21:00:00 9 6 Noroeste 13 Nordeste 0 -- -- 97
2019-11-30 20:00:00 9.5 5 Este 13 Sudeste 0 -- -- 98
2019-11-30 19:00:00 9.9 6 Nordeste 16 Este 1.2 -- -- 99
2019-11-30 18:00:00 10.2 3 Este 8 Nordeste 1.6 -- -- 99
2019-11-30 17:00:00 10.5 0 Calma 5 Sudeste 3 -- -- 99
2019-11-30 16:00:00 10.8 5 Este 10 Nordeste 3 -- -- 97
2019-11-30 15:00:00 11 2 Sudeste 11 Nordeste 4.6 -- -- 97
2019-11-30 14:00:00 11.7 4 Sudeste 14 Nordeste 8 -- -- 96
2019-11-30 13:00:00 12.7 3 Nordeste 19 Noroeste 1.4 -- -- 93
2019-11-30 12:00:00 16.3 11 Norte 37 Sur 0 -- -- 76
2019-11-30 11:00:00 16.6 32 Sur 53 Sudeste 0 -- -- 65
2019-11-30 10:00:00 17 19 Este 39 Sur 0 -- -- 62
2019-11-30 09:00:00 15.4 17 Sudeste 37 Este 0 -- -- 67
2019-11-30 08:00:00 15.1 12 Sudeste 33 Este 0 -- -- 67
2019-11-30 07:00:00 15.1 13 Sur 43 Este 0 -- -- 70
2019-11-30 06:00:00 15 18 Este 41 Este 0 -- -- 66
2019-11-30 05:00:00 14 15 Este 34 Este 0 -- -- 70
2019-11-30 04:00:00 10.1 6 Norte 16 Este 0 -- -- 90
2019-11-30 03:00:00 7.8 7 Norte 14 Norte 0 -- -- 100
2019-11-30 02:00:00 7.8 6 Norte 12 Norte 0 -- -- 100
2019-11-30 01:00:00 7.9 7 Norte 13 Norte 0 -- -- 100
2019-11-30 00:00:00 7.6 2 Este 9 Nordeste 0 -- -- 100
2019-11-29 23:00:00 7.8 0 Calma 8 Norte 0 -- -- 100
2019-11-29 22:00:00 8.2 4 Noroeste 10 Norte 0 -- -- 100
2019-11-29 21:00:00 8.5 2 Oeste 8 Noroeste 0 -- -- 99
2019-11-29 20:00:00 9.3 0 Calma 9 Noroeste 0 -- -- 97
2019-11-29 19:00:00 10.4 0 Calma 5 Este 0 -- -- 96
2019-11-29 18:00:00 11.7 3 Sur 6 Sudeste 0 -- -- 90
2019-11-29 17:00:00 14.7 3 Sudoeste 6 Sudoeste 0 -- -- 80
2019-11-29 16:00:00 17 4 Sudoeste 5 Sudoeste 0 -- -- 73
2019-11-29 15:00:00 15.5 0 Calma 7 Sudoeste 0 -- -- 79
2019-11-29 14:00:00 16.7 3 Este 9 Sudeste 0 -- -- 71
2019-11-29 13:00:00 14.9 3 Norte 5 Noroeste 0 -- -- 86
2019-11-29 12:00:00 13.5 2 Norte 3 Sudeste 0 -- -- 99
2019-11-29 11:00:00 12.6 0 Calma -- -- 0 -- -- 100
2019-11-29 10:00:00 11.7 0 Calma 4 Nordeste 0 -- -- 100
2019-11-29 09:00:00 11.2 2 Norte 5 Norte 0 -- -- 100
2019-11-29 08:00:00 11.3 0 Calma 4 Noroeste 0 -- -- 100
2019-11-29 07:00:00 11.4 0 Calma 5 Sudeste 0 -- -- 100
2019-11-29 06:00:00 11.5 0 Calma 4 Oeste 0 -- -- 100
2019-11-29 05:00:00 11.6 3 Sudeste 7 Sur 0 -- -- 100
2019-11-29 04:00:00 11.3 0 Calma 8 Noroeste 0.2 -- -- 100
2019-11-29 03:00:00 11.1 0 Calma 5 Norte 0.8 -- -- 100
2019-11-29 02:00:00 10.9 0 Calma 5 Noroeste 1.6 -- -- 100
2019-11-29 01:00:00 10.6 0 Calma 11 Noroeste 0 -- -- 100
2019-11-29 00:00:00 10.5 5 Noroeste 15 Norte 0 -- -- 100
2019-11-28 23:00:00 10.3 7 Norte 14 Norte 0 -- -- 100
2019-11-28 22:00:00 10.5 3 Norte 16 Norte 0 -- -- 98
2019-11-28 21:00:00 10.5 5 Este 9 Oeste 0 -- -- 97
2019-11-28 20:00:00 10.7 5 Noroeste 16 Norte 0.2 -- -- 98
2019-11-28 19:00:00 10.9 5 Sudeste 12 Este 1.6 -- -- 98
2019-11-28 18:00:00 11.4 3 Sudeste 11 Noroeste 2.8 -- -- 96
2019-11-28 17:00:00 12 7 Noroeste 18 Norte 0.2 -- -- 92
2019-11-28 16:00:00 12.4 7 Norte 11 Norte 0.2 -- -- 96
2019-11-28 15:00:00 12.9 3 Noroeste 8 Norte 0 -- -- 94
2019-11-28 14:00:00 13 0 Calma 6 Nordeste 0 -- -- 92
2019-11-28 13:00:00 12.4 4 Norte 6 Norte 0 -- -- 97
2019-11-28 12:00:00 11.6 2 Norte 8 Este 0 -- -- 100
2019-11-28 11:00:00 10.8 3 Norte 6 Norte 0 -- -- 100
2019-11-28 10:00:00 10.4 2 Sur 5 Sudeste 0 -- -- 100
2019-11-28 09:00:00 10.1 2 Sudeste 6 Sudeste 0.2 -- -- 99
2019-11-28 08:00:00 10.5 0 Calma 6 Sur 0.4 -- -- 99
2019-11-28 07:00:00 10.7 3 Noroeste 5 Nordeste 0 -- -- 97
2019-11-28 06:00:00 12 0 Calma 27 Sudoeste 0.8 -- -- 88
2019-11-28 05:00:00 14 12 Sudoeste 34 Sudoeste 0 -- -- 68
2019-11-28 04:00:00 13.8 11 Sudoeste 34 Sudoeste 0 -- -- 68
2019-11-28 03:00:00 13.5 8 Sudoeste 29 Sudoeste 0 -- -- 68
2019-11-28 02:00:00 12.9 10 Oeste 26 Oeste 0 -- -- 78
2019-11-28 01:00:00 10.8 8 Noroeste 19 Noroeste 0.2 -- -- 95
2019-11-28 00:00:00 10.4 7 Noroeste 13 Norte 0 -- -- 99
2019-11-27 23:00:00 10.3 3 Norte 9 Noroeste 0 -- -- 99
2019-11-27 22:00:00 10.8 4 Norte 7 Norte 0 -- -- 98
2019-11-27 21:00:00 11 3 Noroeste 15 Sudeste 0 -- -- 96
2019-11-27 20:00:00 11.2 9 Este 18 Nordeste 0.2 -- -- 94
2019-11-27 19:00:00 11.9 4 Sur 24 Noroeste 0.6 -- -- 91
2019-11-27 18:00:00 14.6 10 Oeste 45 Oeste 0 -- -- 69
2019-11-27 17:00:00 15.6 18 Sur 40 Sudoeste 0 -- -- 59
2019-11-27 16:00:00 16 9 Sudoeste 20 Oeste 0 -- -- 56
2019-11-27 15:00:00 16.4 6 Sur 41 Sudoeste 0 -- -- 56
2019-11-27 14:00:00 17 12 Sur 37 Sudeste 0 -- -- 53
2019-11-27 06:00:00 -- -- -- -- -- -- -- -- --
2019-11-27 05:00:00 14.8 12 Sudoeste 35 Sudoeste 0 -- -- 56
2019-11-27 04:00:00 15.2 13 Sudoeste 40 Sudoeste 0 -- -- 59
2019-11-27 03:00:00 15.8 13 Sudoeste 40 Sudoeste 0 -- -- 58
2019-11-27 02:00:00 15.5 11 Sudoeste 41 Sur 0 -- -- 65
2019-11-27 01:00:00 14 11 Sudoeste 29 Oeste 0 -- -- 80
2019-11-27 00:00:00 12.5 6 Norte 21 Nordeste 0 -- -- 91
2019-11-26 23:00:00 14.6 10 Norte 54 Sur 0 -- -- 81
2019-11-26 22:00:00 18.8 23 Sur 50 Sur 0 -- -- 51
2019-11-26 21:00:00 17.2 20 Sur 55 Sur 0 -- -- 68
2019-11-26 20:00:00 17.6 21 Sur 53 Sur 0 -- -- 66
2019-11-26 19:00:00 18 24 Sur 57 Sur 0 -- -- 65
2019-11-26 18:00:00 18.1 21 Sur 41 Sudeste 0 -- -- 64
2019-11-26 17:00:00 18.3 13 Sudeste 34 Sudeste 0 -- -- 63
2019-11-26 16:00:00 17.8 9 Sudeste 29 Sur 0 -- -- 64
2019-11-26 15:00:00 18.2 11 Sudeste 39 Sur 0 -- -- 60
2019-11-26 14:00:00 19 24 Sur 69 Sur 0 -- -- 61
2019-11-26 13:00:00 19.5 43 Sur 76 Sudeste 0 -- -- 60
2019-11-26 12:00:00 19.8 31 Sur 73 Sur 0 -- -- 60
2019-11-26 11:00:00 19.3 12 Este 48 Sudeste 0 -- -- 59
2019-11-26 10:00:00 17.9 19 Este 36 Este 0 -- -- 63
2019-11-26 09:00:00 15.9 11 Sudeste 35 Sur 0 -- -- 66
2019-11-26 08:00:00 15 11 Sur 25 Sudeste 0 -- -- 65
2019-11-26 07:00:00 15.6 19 Sudeste 32 Sudeste 0 -- -- 63
2019-11-26 06:00:00 14.6 10 Sur 32 Sur 0 -- -- 67
2019-11-26 05:00:00 14.2 9 Sudeste 27 Sudeste 0 -- -- 67
2019-11-26 04:00:00 12 9 Noroeste 26 Sur 0 -- -- 81
2019-11-26 03:00:00 8.7 6 Noroeste 14 Norte 0 -- -- 100
2019-11-26 02:00:00 8.7 6 Norte 10 Noroeste 0 -- -- 100
2019-11-26 01:00:00 8.9 5 Norte 9 Norte 0 -- -- 100
2019-11-26 00:00:00 9.4 3 Noroeste 8 Noroeste 0 -- -- 100
2019-11-25 23:00:00 10.4 2 Norte 9 Noroeste 0 -- -- 100
2019-11-25 22:00:00 11.2 0 Calma 9 Sudeste 0 -- -- 99
2019-11-25 21:00:00 12 0 Calma 5 Norte 0 -- -- 97
2019-11-25 20:00:00 12.5 3 Norte 5 Nordeste 0 -- -- 97
2019-11-25 19:00:00 13 3 Noroeste 6 Noroeste 0 -- -- 94
2019-11-25 18:00:00 13.9 0 Calma 4 Norte 0 -- -- 89
2019-11-25 17:00:00 14.2 2 Noroeste 9 Norte 0 -- -- 86
2019-11-25 16:00:00 14.6 4 Norte 12 Norte 0 -- -- 87
2019-11-25 15:00:00 15.7 4 Norte 12 Norte 0 -- -- 82
2019-11-25 14:00:00 15.9 4 Norte 23 Norte 0 -- -- 79
2019-11-25 13:00:00 16.9 4 Noroeste 9 Norte 0 -- -- 78
2019-11-25 12:00:00 15.8 3 Sur 7 Noroeste 0 -- -- 88
2019-11-25 11:00:00 13.2 5 Norte 9 Noroeste 0 -- -- 89
2019-11-25 10:00:00 11 0 Calma 9 Norte 0 -- -- 99
2019-11-25 09:00:00 10.1 4 Norte 12 Noroeste 0 -- -- 99
2019-11-25 08:00:00 10.4 5 Noroeste 15 Norte 0 -- -- 96
2019-11-25 07:00:00 10.7 6 Noroeste 18 Norte 0 -- -- 95
2019-11-25 06:00:00 10.7 3 Norte 16 Norte 0 -- -- 93
2019-11-25 05:00:00 10.7 6 Norte 15 Nordeste 0 -- -- 94
2019-11-25 04:00:00 10.1 4 Norte 13 Noroeste 0 -- -- 98
2019-11-25 03:00:00 10.5 6 Norte 13 Norte 0.2 -- -- 99
2019-11-25 02:00:00 10.3 8 Noroeste 17 Noroeste 0.4 -- -- 100
2019-11-25 01:00:00 10.2 8 Norte 14 Noroeste 0 -- -- 98
2019-11-25 00:00:00 10.4 4 Sudoeste 19 Este 0.4 -- -- 92
2019-11-24 23:00:00 10.1 2 Nordeste 15 Sudeste 1.2 -- -- 94
2019-11-24 22:00:00 10.1 5 Este 17 Este 0 -- -- 83
2019-11-24 21:00:00 9.6 4 Noroeste 15 Noroeste 0 -- -- 88
2019-11-24 20:00:00 9.6 6 Noroeste 15 Norte 0 -- -- 85
2019-11-24 19:00:00 9.2 7 Norte 12 Este 0 -- -- 91
2019-11-24 18:00:00 10.8 3 Noroeste 10 Sur 0 -- -- 80
2019-11-24 17:00:00 12.4 4 Este 11 Nordeste 0 -- -- 69
2019-11-24 16:00:00 12.7 2 Sur 11 Sudoeste 0 -- -- 78
2019-11-24 15:00:00 13.1 3 Sur 13 Sudoeste 0 -- -- 80
2019-11-24 14:00:00 12.9 5 Sur 16 Sudoeste 0 -- -- 80
2019-11-24 13:00:00 11.6 0 Calma 8 Este 0 -- -- 95
2019-11-24 12:00:00 10.7 2 Sudeste 5 Norte 0 -- -- 99
2019-11-24 11:00:00 9.9 0 Calma 10 Este 0 -- -- 100
2019-11-24 10:00:00 9 3 Sur 6 Sudoeste 0.8 -- -- 100
2019-11-24 09:00:00 8.6 2 Sudeste 14 Oeste 3 -- -- 100
2019-11-24 08:00:00 8.5 2 Sudeste 16 Norte 5 -- -- 99
2019-11-24 07:00:00 8.5 5 Nordeste 15 Noroeste 1.4 -- -- 99
2019-11-24 06:00:00 8.4 6 Norte 26 Norte 3.2 -- -- 99
2019-11-24 05:00:00 8.3 4 Sudeste 12 Noroeste 3 -- -- 99
2019-11-24 04:00:00 8.6 5 Nordeste 22 Oeste 3.8 -- -- 97
2019-11-24 03:00:00 8.3 4 Sudoeste 14 Sur 0.4 -- -- 96
2019-11-24 02:00:00 8.6 3 Noroeste 15 Oeste 1 -- -- 92
2019-11-24 01:00:00 9 5 Oeste 22 Sur 0.4 -- -- 89
2019-11-24 00:00:00 9.5 8 Noroeste 27 Oeste 0.6 -- -- 86
2019-11-23 23:00:00 9.4 6 Sudoeste 21 Oeste 2.2 -- -- 89
2019-11-23 22:00:00 9.6 5 Sudoeste 23 Oeste 0 -- -- 87
2019-11-23 21:00:00 9.6 7 Sudoeste 19 Sudoeste 0.8 -- -- 89
2019-11-23 20:00:00 9.6 3 Oeste 28 Sur 1.2 -- -- 91
2019-11-23 19:00:00 10.2 4 Sudoeste 23 Sudoeste 0 -- -- 87
2019-11-23 18:00:00 9.9 8 Sudoeste 28 Este 0.4 -- -- 89
2019-11-23 17:00:00 10.9 10 Norte 33 Noroeste 0.4 -- -- 86
2019-11-23 16:00:00 11 13 Sur 32 Oeste 0 -- -- 82
2019-11-23 15:00:00 9.9 8 Este 27 Este 1 -- -- 92
2019-11-23 14:00:00 10.3 12 Sur 38 Sudoeste 0.2 -- -- 89
2019-11-23 13:00:00 9.6 8 Sudeste 32 Sur 6.4 -- -- 95
2019-11-23 12:00:00 9.8 7 Noroeste 47 Sudoeste 2.6 -- -- 92
2019-11-23 11:00:00 9.5 17 Sur 53 Sudoeste 4.8 -- -- 94
2019-11-23 10:00:00 9.6 15 Sur 55 Sudoeste 3.6 -- -- 94
2019-11-23 09:00:00 9.9 18 Sur 53 Sur 4.2 -- -- 92
2019-11-23 08:00:00 9.4 9 Sudoeste 36 Sur 3.6 -- -- 92
2019-11-23 07:00:00 9.3 13 Sur 37 Sudoeste 3.2 -- -- 92
2019-11-23 06:00:00 10 5 Sur 21 Sudoeste 1.8 -- -- 87
2019-11-23 05:00:00 10.7 12 Sur 28 Sur 1.6 -- -- 88
2019-11-23 04:00:00 13.4 8 Sur 25 Sur 0 -- -- 60
2019-11-23 03:00:00 13.8 10 Sur 38 Sur 0 -- -- 59
2019-11-23 02:00:00 13.9 23 Sur 51 Sur 0 -- -- 60
2019-11-23 01:00:00 14.2 18 Sur 56 Sur 0 -- -- 59
2019-11-23 00:00:00 14.5 19 Sur 63 Sur 0 -- -- 59
2019-11-22 23:00:00 14.1 31 Sur 67 Sur 0 -- -- 62
2019-11-22 22:00:00 14.1 32 Sur 57 Sur 0.2 -- -- 64
2019-11-22 21:00:00 13.2 28 Sur 63 Sur 0 -- -- 73
2019-11-22 20:00:00 11.8 23 Sudeste 83 Sur 1.4 -- -- 85
2019-11-22 19:00:00 12.1 28 Sur 60 Sur 2.2 -- -- 86
2019-11-22 18:00:00 14 16 Sur 70 Sur 0 -- -- 68
2019-11-22 17:00:00 13.9 20 Sur 63 Sur 0 -- -- 67
2019-11-22 16:00:00 12.5 18 Sur 65 Sur 0.2 -- -- 78
2019-11-22 15:00:00 13.5 29 Sur 67 Sudeste 0 -- -- 68
2019-11-22 14:00:00 13.7 29 Este 65 Sudeste 0 -- -- 64
2019-11-22 13:00:00 13.7 33 Sur 80 Sur 0 -- -- 64
2019-11-22 12:00:00 13.4 23 Sudeste 54 Este 0 -- -- 64
2019-11-22 11:00:00 12.3 19 Sur 60 Sudeste 0 -- -- 68
2019-11-22 10:00:00 12 21 Sudeste 62 Sudeste 0 -- -- 68
2019-11-22 09:00:00 12.2 22 Sur 65 Sur 0 -- -- 67
2019-11-22 08:00:00 11.9 21 Sur 54 Sur 0 -- -- 66
2019-11-22 07:00:00 11.6 16 Sur 53 Sur 0 -- -- 67
2019-11-22 06:00:00 11.6 21 Sur 50 Sur 0 -- -- 66
2019-11-22 05:00:00 11.4 10 Sur 33 Sur 0 -- -- 66
2019-11-22 04:00:00 11.3 12 Sudeste 35 Sudeste 0 -- -- 67
2019-11-22 03:00:00 11.2 12 Sudeste 36 Este 0 -- -- 67
2019-11-22 02:00:00 10.9 10 Sudeste 26 Nordeste 0 -- -- 67
2019-11-22 01:00:00 10.7 15 Sudeste 28 Sudeste 0 -- -- 70
2019-11-22 00:00:00 7.9 5 Sudeste 13 Sur 0 -- -- 86
2019-11-21 23:00:00 7 4 Noroeste 10 Noroeste 0 -- -- 94
2019-11-21 22:00:00 7.2 5 Noroeste 12 Noroeste 0 -- -- 92
2019-11-21 21:00:00 7.6 7 Noroeste 15 Noroeste 0 -- -- 91
2019-11-21 20:00:00 9 5 Noroeste 17 Sudeste 0 -- -- 82
2019-11-21 19:00:00 10.5 7 Sudeste 18 Sudeste 0 -- -- 71
2019-11-21 18:00:00 10.8 6 Sur 18 Sudeste 0 -- -- 70
2019-11-21 17:00:00 11.7 9 Sur 22 Sur 0 -- -- 66
2019-11-21 16:00:00 12.9 11 Sudeste 19 Sudeste 0 -- -- 63
2019-11-21 15:00:00 14.4 10 Sur 29 Sudoeste 0 -- -- 59
2019-11-21 14:00:00 14.7 17 Sur 36 Sur 0 -- -- 57
2019-11-21 13:00:00 16 19 Sur 31 Sur 0 -- -- 54
2019-11-21 12:00:00 15.6 13 Sur 44 Sur 0 -- -- 57
2019-11-21 11:00:00 13.8 13 Sur 35 Sur 0 -- -- 57
2019-11-21 10:00:00 12 13 Este 37 Sur 0 -- -- 66
2019-11-21 09:00:00 10.4 16 Sudeste 35 Sudeste 0 -- -- 68
2019-11-21 08:00:00 10 15 Sudeste 29 Este 0 -- -- 70
2019-11-21 07:00:00 9.7 12 Sudeste 32 Este 0 -- -- 72
2019-11-21 06:00:00 9.9 15 Este 30 Nordeste 0 -- -- 72
2019-11-21 05:00:00 9.9 13 Sudeste 37 Nordeste 0 -- -- 71
2019-11-21 04:00:00 10.1 19 Sudeste 41 Sudeste 0 -- -- 70
2019-11-21 03:00:00 9.4 15 Este 32 Este 0 -- -- 74
2019-11-21 02:00:00 9.8 15 Sudeste 33 Este 0 -- -- 73
2019-11-21 01:00:00 9.7 18 Sudeste 41 Sudeste 0 -- -- 72
2019-11-21 00:00:00 10 13 Sudeste 30 Sur 0 -- -- 69
2019-11-20 23:00:00 10.2 17 Sudeste 38 Sudeste 0 -- -- 67
2019-11-20 22:00:00 11 21 Sur 46 Sur 0 -- -- 65
2019-11-20 21:00:00 11.4 17 Sur 38 Sur 0 -- -- 57
2019-11-20 20:00:00 11.4 5 Sudeste 29 Sudoeste 0 -- -- 58
2019-11-20 19:00:00 11.6 7 Sur 27 Sudeste 0 -- -- 60
2019-11-20 18:00:00 11.9 12 Sudeste 23 Sudeste 0 -- -- 57
2019-11-20 17:00:00 12.1 9 Sudeste 35 Este 0 -- -- 60
2019-11-20 16:00:00 12.2 17 Este 35 Este 0 -- -- 57
2019-11-20 15:00:00 12.8 12 Sudeste 37 Sudeste 0 -- -- 55
2019-11-20 14:00:00 12.1 13 Sudeste 33 Sudoeste 0 -- -- 56
2019-11-20 13:00:00 11.8 13 Sur 35 Sudeste 0 -- -- 60
2019-11-20 12:00:00 10.7 22 Sudeste 44 Sudeste 0 -- -- 60
2019-11-20 11:00:00 10.3 15 Sudeste 35 Sudeste 0 -- -- 60
2019-11-20 10:00:00 10 18 Sudeste 36 Sudeste 0 -- -- 61
2019-11-20 09:00:00 9.1 12 Sudeste 28 Este 0 -- -- 65
2019-11-20 08:00:00 8.2 6 Sudeste 24 Nordeste 0 -- -- 71
2019-11-20 07:00:00 8.3 13 Este 30 Nordeste 0 -- -- 75
2019-11-20 06:00:00 7.9 9 Nordeste 30 Este 0 -- -- 79
2019-11-20 05:00:00 7.2 9 Este 23 Este 0 -- -- 78
2019-11-20 04:00:00 4.8 5 Noroeste 16 Noroeste 0 -- -- 99
2019-11-20 03:00:00 3.8 7 Norte 15 Noroeste 0 -- -- 100
2019-11-20 02:00:00 2.5 3 Norte 8 Norte 0 -- -- 100
2019-11-20 01:00:00 2.5 0 Calma 4 Sur 0 -- -- 100
2019-11-20 00:00:00 2.7 2 Sudoeste 4 Sudoeste 0 -- -- 100
2019-11-19 23:00:00 3.2 0 Calma 5 Noroeste 0 -- -- 100
2019-11-19 22:00:00 3.8 2 Sur 7 Sudeste 0 -- -- 99
2019-11-19 21:00:00 4.6 2 Sur 5 Sur 0 -- -- 96
2019-11-19 20:00:00 5.8 2 Sur 10 Nordeste 0 -- -- 92
2019-11-19 19:00:00 7.3 2 Nordeste 10 Este 0 -- -- 86
2019-11-19 18:00:00 8.5 0 Calma 6 Este 0 -- -- 87
2019-11-19 17:00:00 11 0 Calma 9 Norte 0 -- -- 68
2019-11-19 16:00:00 12 4 Noroeste 12 Noroeste 0 -- -- 62
2019-11-19 15:00:00 12.5 2 Noroeste 5 Norte 0 -- -- 58
2019-11-19 14:00:00 12.3 5 Norte 7 Norte 0 -- -- 62
2019-11-19 13:00:00 10.6 2 Noroeste 4 Oeste 0 -- -- 69
2019-11-19 12:00:00 10.4 0 Calma 3 Norte 0 -- -- 82
2019-11-19 11:00:00 9.1 0 Calma 5 Sur 0 -- -- 97
2019-11-19 10:00:00 5.3 2 Sudoeste 5 Sudoeste 0 -- -- 100
2019-11-19 09:00:00 3.9 2 Sudoeste 6 Sudeste 0 -- -- 100
2019-11-19 08:00:00 4.4 0 Calma 6 Sudeste 0 -- -- 100
2019-11-19 07:00:00 4.8 0 Calma 11 Nordeste 0 -- -- 100
2019-11-19 06:00:00 5.3 2 Este 8 Sudeste 0 -- -- 100
2019-11-19 05:00:00 5.3 0 Calma 12 Nordeste 0.2 -- -- 100
2019-11-19 04:00:00 5.4 4 Sudeste 13 Nordeste 0.2 -- -- 99
2019-11-19 03:00:00 5.1 4 Este 12 Nordeste 0 -- -- 99
2019-11-19 02:00:00 4.9 2 Norte 5 Noroeste 0 -- -- 100
2019-11-19 01:00:00 4.6 5 Este 11 Este 0 -- -- 100
2019-11-19 00:00:00 4.6 4 Sudeste 8 Nordeste 0 -- -- 100
2019-11-18 23:00:00 4.6 3 Sur 8 Nordeste 0 -- -- 99
2019-11-18 22:00:00 5.1 5 Este 10 Este 0 -- -- 99
2019-11-18 21:00:00 5.6 0 Calma 12 Este 0 -- -- 98
2019-11-18 20:00:00 6.1 0 Calma 9 Este 0 -- -- 98
2019-11-18 19:00:00 6.8 3 Sudoeste 5 Sudoeste 0 -- -- 97
2019-11-18 18:00:00 7.4 2 Sur 4 Sudoeste 0 -- -- 94
2019-11-18 17:00:00 8.2 2 Sudoeste 8 Noroeste 0 -- -- 89
2019-11-18 16:00:00 8.8 3 Noroeste 8 Sudoeste 0 -- -- 78
2019-11-18 15:00:00 9.8 0 Calma 14 Sur 0 -- -- 74
2019-11-18 14:00:00 9.3 5 Sur 9 Sur 0 -- -- 82
2019-11-18 13:00:00 8.4 0 Calma 16 Noroeste 0 -- -- 80
2019-11-18 12:00:00 8.1 0 Calma 5 Sudoeste 0.2 -- -- 100
2019-11-18 11:00:00 6.3 2 Sudoeste 4 Sudoeste 0 -- -- 100
2019-11-18 10:00:00 5.6 0 Calma 5 Sudoeste 0 -- -- 100
2019-11-18 09:00:00 5.4 2 Oeste 9 Este 0 -- -- 99
2019-11-18 08:00:00 5.7 0 Calma 27 Noroeste 0.8 -- -- 92
2019-11-18 07:00:00 6.4 3 Sudeste 6 Sudeste 0 -- -- 100
2019-11-18 06:00:00 6.6 3 Sur 4 Sur 0 -- -- 100
2019-11-18 05:00:00 6.7 2 Sudoeste 22 Noroeste 0.4 -- -- 98
2019-11-18 04:00:00 7.6 10 Norte 24 Norte 3 -- -- 97
2019-11-18 03:00:00 7.9 3 Oeste 10 Norte 0.2 -- -- 97
2019-11-18 02:00:00 8.3 3 Oeste 18 Noroeste 0 -- -- 96
2019-11-18 01:00:00 7.8 4 Sudoeste 13 Oeste 1 -- -- 100
2019-11-18 00:00:00 7.7 3 Noroeste 16 Sur 3.8 -- -- 99
2019-11-17 23:00:00 7.9 3 Noroeste 15 Noroeste 3.2 -- -- 97
2019-11-17 22:00:00 8 5 Sur 14 Oeste 0.6 -- -- 99
2019-11-17 21:00:00 8.2 2 Sudoeste 6 Sur 1.8 -- -- 100
2019-11-17 20:00:00 8.6 0 Calma 8 Noroeste 0 -- -- 98
2019-11-17 19:00:00 8.7 4 Noroeste 14 Este 0.2 -- -- 98
2019-11-17 18:00:00 9.2 3 Norte 14 Sur 0 -- -- 93
2019-11-17 17:00:00 9.2 4 Nordeste 14 Norte 4.4 -- -- 100
2019-11-17 16:00:00 9.6 3 Noroeste 16 Sudoeste 2.4 -- -- 96
2019-11-17 15:00:00 9.8 2 Norte 17 Sudoeste 1 -- -- 97
2019-11-17 14:00:00 8.9 5 Norte 11 Noroeste 0.8 -- -- 98
2019-11-17 13:00:00 9 6 Norte 13 Sudeste 1.4 -- -- 97
2019-11-17 12:00:00 8.9 2 Sur 17 Nordeste 0.4 -- -- 96
2019-11-17 11:00:00 8.6 4 Este 12 Nordeste 0.2 -- -- 100
2019-11-17 10:00:00 7.9 3 Oeste 6 Noroeste 0 -- -- 100
2019-11-17 09:00:00 7.5 4 Norte 8 Norte 0 -- -- 100
2019-11-17 08:00:00 7 3 Este 8 Este 0.2 -- -- 100
2019-11-17 07:00:00 6.8 2 Sur 5 Este 0.6 -- -- 100
2019-11-17 06:00:00 6.9 0 Calma 6 Nordeste 0.6 -- -- 100
2019-11-17 05:00:00 6.7 0 Calma 6 Sudeste 0.4 -- -- 100
2019-11-17 04:00:00 6.9 4 Noroeste 7 Norte 0.2 -- -- 100
2019-11-17 03:00:00 6.8 0 Calma 6 Norte 0 -- -- 99
2019-11-17 02:00:00 7.1 5 Norte 9 Noroeste 0.2 -- -- 98
2019-11-17 01:00:00 7.3 3 Norte 9 Norte 0 -- -- 95
2019-11-17 00:00:00 7.1 4 Norte 12 Nordeste 0 -- -- 96
2019-11-16 23:00:00 6.9 3 Noroeste 13 Nordeste 0 -- -- 97
2019-11-16 22:00:00 7.1 4 Norte 37 Sudoeste 0.6 -- -- 94
2019-11-16 21:00:00 7.3 9 Sudoeste 29 Oeste 0.4 -- -- 91
2019-11-16 20:00:00 7.2 4 Sudeste 18 Sudoeste 3.6 -- -- 95
2019-11-16 19:00:00 7.9 5 Noroeste 33 Oeste 0.8 -- -- 90
2019-11-16 18:00:00 7.8 7 Sudeste 40 Sudoeste 0.2 -- -- 88
2019-11-16 17:00:00 7.6 8 Sudoeste 36 Sudoeste 1 -- -- 91
2019-11-16 16:00:00 6.3 4 Norte 19 Este 1.6 -- -- 99
2019-11-16 15:00:00 5.6 6 Este 18 Nordeste 2.4 -- -- 98
2019-11-16 14:00:00 5.5 3 Sudeste 29 Sudoeste 2.6 -- -- 96
2019-11-16 13:00:00 5.2 8 Sudeste 19 Sur 2.4 -- -- 95
2019-11-16 12:00:00 5.6 5 Sur 24 Sur 2 -- -- 96
2019-11-16 11:00:00 5.8 6 Sudoeste 33 Oeste 1.8 -- -- 100
2019-11-16 10:00:00 5.2 9 Sudoeste 36 Oeste 0.8 -- -- 100
2019-11-16 09:00:00 3.4 2 Nordeste 6 Norte 0 -- -- 100
2019-11-16 08:00:00 2.7 3 Sudeste 6 Nordeste 0 -- -- 100
2019-11-16 07:00:00 2.2 3 Noroeste 9 Nordeste 0 -- -- 100
2019-11-16 06:00:00 2.3 2 Sudoeste 5 Sudoeste 0 -- -- 100
2019-11-16 05:00:00 2.6 0 Calma 5 Sur 0 -- -- 100
2019-11-16 04:00:00 2.9 3 Sur 5 Sudeste 0 -- -- 100
2019-11-16 03:00:00 3.2 3 Sudoeste 5 Sudeste 0 -- -- 100
2019-11-16 02:00:00 3.7 0 Calma 7 Sudoeste 1 -- -- 100
2019-11-16 01:00:00 3.6 3 Sur 9 Nordeste 0.4 -- -- 100
2019-11-16 00:00:00 3.8 6 Este 14 Este 0.4 -- -- 100
2019-11-15 23:00:00 3.7 4 Sudeste 19 Este 0.4 -- -- 98
2019-11-15 22:00:00 3.9 3 Sur 17 Sudeste 1 -- -- 97
2019-11-15 21:00:00 4 4 Sudoeste 12 Sudeste 1.8 -- -- 98
2019-11-15 20:00:00 4 4 Este 11 Nordeste 2.4 -- -- 100
2019-11-15 19:00:00 4 4 Sudeste 21 Sudeste 3.8 -- -- 97
2019-11-15 18:00:00 4.5 12 Sur 22 Norte 7 -- -- 97
2019-11-15 17:00:00 5.5 10 Sudeste 17 Este 4 -- -- 96
2019-11-15 16:00:00 7 4 Sudoeste 31 Nordeste 5.8 -- -- 89
2019-11-15 15:00:00 9.3 3 Sudoeste 22 Norte 0 -- -- 79
2019-11-15 14:00:00 9.1 6 Noroeste 26 Noroeste 0.2 -- -- 81
2019-11-15 13:00:00 8.8 8 Noroeste 37 Noroeste 0 -- -- 86
2019-11-15 12:00:00 8.3 10 Oeste 24 Noroeste 0.4 -- -- 91
2019-11-15 11:00:00 6.2 0 Calma 37 Sudoeste 2.2 -- -- 96
2019-11-15 10:00:00 6.4 17 Sur 36 Sur 0.6 -- -- 91
2019-11-15 09:00:00 6.8 10 Sudoeste 33 Sur 0.2 -- -- 83
2019-11-15 08:00:00 6.7 9 Sudoeste 34 Oeste 0.2 -- -- 85
2019-11-15 07:00:00 6.6 13 Sur 36 Sudoeste 0.2 -- -- 89
2019-11-15 06:00:00 7.1 9 Sur 30 Sudoeste 0 -- -- 82
2019-11-15 05:00:00 6.8 8 Sudoeste 25 Oeste 0 -- -- 84
2019-11-15 04:00:00 6.1 6 Noroeste 9 Norte 0 -- -- 96
2019-11-15 03:00:00 6 6 Norte 10 Norte 0 -- -- 99
2019-11-15 02:00:00 5.8 2 Sudeste 9 Noroeste 0 -- -- 99
2019-11-15 01:00:00 5.8 3 Nordeste 13 Nordeste 0 -- -- 100
2019-11-15 00:00:00 5.7 0 Calma 11 Norte 0.6 -- -- 100